createdAt,value
2023-05-12T00:00:41.900Z,13.86
2023-05-12T00:01:41.866Z,13.83
2023-05-12T00:02:41.936Z,13.83
2023-05-12T00:03:41.999Z,13.80
2023-05-12T00:04:41.860Z,13.79
2023-05-12T00:05:41.821Z,13.79
2023-05-12T00:06:41.845Z,13.79
2023-05-12T00:07:41.758Z,13.79
2023-05-12T00:08:41.807Z,13.79
2023-05-12T00:09:41.795Z,13.76
2023-05-12T00:10:41.752Z,13.76
2023-05-12T00:11:41.732Z,13.75
2023-05-12T00:12:41.708Z,13.73
2023-05-12T00:13:41.767Z,13.72
2023-05-12T00:14:41.686Z,13.69
2023-05-12T00:15:41.691Z,13.72
2023-05-12T00:16:41.729Z,13.73
2023-05-12T00:18:02.695Z,13.75
2023-05-12T00:18:41.676Z,13.76
2023-05-12T00:19:41.669Z,13.79
2023-05-12T00:20:41.616Z,13.76
2023-05-12T00:21:41.637Z,13.76
2023-05-12T00:22:41.571Z,13.75
2023-05-12T00:23:41.603Z,13.76
2023-05-12T00:24:41.581Z,13.79
2023-05-12T00:25:41.551Z,13.76
2023-05-12T00:26:41.561Z,13.79
2023-05-12T00:27:41.559Z,13.80
2023-05-12T00:28:41.497Z,13.80
2023-05-12T00:29:41.484Z,13.81
2023-05-12T00:30:41.488Z,13.75
2023-05-12T00:31:41.575Z,13.75
2023-05-12T00:32:41.492Z,13.75
2023-05-12T00:33:41.458Z,13.75
2023-05-12T00:34:41.413Z,13.76
2023-05-12T00:35:41.453Z,13.79
2023-05-12T00:36:41.492Z,13.79
2023-05-12T00:37:41.384Z,13.81
2023-05-12T00:38:41.383Z,13.80
2023-05-12T00:39:41.385Z,13.81
2023-05-12T00:40:41.356Z,13.84
2023-05-12T00:41:41.363Z,13.84
2023-05-12T00:42:41.358Z,13.86
2023-05-12T00:43:41.348Z,13.83
2023-05-12T00:44:41.307Z,13.84
2023-05-12T00:45:41.299Z,13.84
2023-05-12T00:46:41.263Z,13.87
2023-05-12T00:47:41.279Z,13.86
2023-05-12T00:48:49.131Z,13.86
2023-05-12T00:49:41.227Z,13.86
2023-05-12T00:50:41.234Z,13.87
2023-05-12T00:51:42.014Z,13.86
2023-05-12T00:52:41.183Z,13.84
2023-05-12T00:53:49.071Z,13.86
2023-05-12T00:54:42.155Z,13.84
2023-05-12T00:55:41.173Z,13.86
2023-05-12T00:56:41.155Z,13.84
2023-05-12T00:57:41.157Z,13.87
2023-05-12T00:58:41.112Z,13.87
2023-05-12T00:59:41.141Z,13.84
2023-05-12T01:00:41.082Z,13.84
2023-05-12T01:01:41.280Z,13.83
2023-05-12T01:02:41.168Z,13.83
2023-05-12T01:03:41.141Z,13.80
2023-05-12T01:04:41.040Z,13.79
2023-05-12T01:05:41.072Z,13.79
2023-05-12T01:06:41.003Z,13.80
2023-05-12T01:07:41.054Z,13.80
2023-05-12T01:08:40.988Z,13.79
2023-05-12T01:09:40.980Z,13.79
2023-05-12T01:10:40.968Z,13.80
2023-05-12T01:11:40.952Z,13.81
2023-05-12T01:12:40.970Z,13.81
2023-05-12T01:13:41.023Z,13.83
2023-05-12T01:14:40.926Z,13.83
2023-05-12T01:15:40.931Z,13.83
2023-05-12T01:16:40.883Z,13.81
2023-05-12T01:17:40.957Z,13.81
2023-05-12T01:18:40.870Z,13.80
2023-05-12T01:19:40.855Z,13.81
2023-05-12T01:20:40.842Z,13.83
2023-05-12T01:21:40.904Z,13.83
2023-05-12T01:22:40.787Z,13.81
2023-05-12T01:23:40.855Z,13.83
2023-05-12T01:24:40.796Z,13.84
2023-05-12T01:25:40.792Z,13.83
2023-05-12T01:26:40.760Z,13.83
2023-05-12T01:27:40.760Z,13.84
2023-05-12T01:28:40.770Z,13.84
2023-05-12T01:29:40.710Z,13.84
2023-05-12T01:30:40.723Z,13.87
2023-05-12T01:31:40.833Z,13.86
2023-05-12T01:32:40.762Z,13.87
2023-05-12T01:33:40.655Z,13.86
2023-05-12T01:34:40.676Z,13.86
2023-05-12T01:35:40.661Z,13.84
2023-05-12T01:36:40.664Z,13.86
2023-05-12T01:37:40.611Z,13.84
2023-05-12T01:38:40.636Z,13.86
2023-05-12T01:39:40.579Z,13.86
2023-05-12T01:40:40.603Z,13.86
2023-05-12T01:41:40.564Z,13.86
2023-05-12T01:42:40.538Z,13.86
2023-05-12T01:43:40.568Z,13.86
2023-05-12T01:44:40.521Z,13.86
2023-05-12T01:45:40.521Z,13.86
2023-05-12T01:46:40.531Z,13.83
2023-05-12T01:47:40.560Z,13.81
2023-05-12T01:48:40.480Z,13.80
2023-05-12T01:49:40.498Z,13.80
2023-05-12T01:50:40.453Z,13.80
2023-05-12T01:51:40.459Z,13.80
2023-05-12T01:52:40.514Z,13.81
2023-05-12T01:53:40.390Z,13.83
2023-05-12T01:54:40.366Z,13.81
2023-05-12T01:55:40.404Z,13.80
2023-05-12T01:56:40.342Z,13.79
2023-05-12T01:57:40.378Z,13.80
2023-05-12T01:58:40.373Z,13.80
2023-05-12T01:59:40.364Z,13.80
2023-05-12T02:00:40.320Z,13.81
2023-05-12T02:01:40.355Z,13.83
2023-05-12T02:02:42.769Z,13.83
2023-05-12T02:03:40.375Z,13.84
2023-05-12T02:04:40.270Z,13.84
2023-05-12T02:05:40.249Z,13.83
2023-05-12T02:06:40.242Z,13.81
2023-05-12T02:07:40.265Z,13.83
2023-05-12T02:08:40.172Z,13.81
2023-05-12T02:09:40.185Z,13.81
2023-05-12T02:10:40.156Z,13.81
2023-05-12T02:11:40.198Z,13.80
2023-05-12T02:12:40.155Z,13.80
2023-05-12T02:13:40.167Z,13.80
2023-05-12T02:14:40.124Z,13.79
2023-05-12T02:15:40.120Z,13.79
2023-05-12T02:16:40.156Z,13.81
2023-05-12T02:17:40.154Z,13.81
2023-05-12T02:18:40.117Z,13.81
2023-05-12T02:19:40.102Z,13.83
2023-05-12T02:20:40.048Z,13.84
2023-05-12T02:21:40.033Z,13.86
2023-05-12T02:22:40.035Z,13.84
2023-05-12T02:23:40.066Z,13.84
2023-05-12T02:24:39.969Z,13.84
2023-05-12T02:25:40.000Z,13.87
2023-05-12T02:26:39.968Z,13.86
2023-05-12T02:27:40.019Z,13.87
2023-05-12T02:28:39.931Z,13.86
2023-05-12T02:29:39.966Z,13.86
2023-05-12T02:30:39.925Z,13.86
2023-05-12T02:31:39.914Z,13.86
2023-05-12T02:32:39.939Z,13.86
2023-05-12T02:33:39.912Z,13.86
2023-05-12T02:34:39.890Z,13.86
2023-05-12T02:35:39.879Z,13.87
2023-05-12T02:36:39.809Z,13.86
2023-05-12T02:37:39.847Z,13.86
2023-05-12T02:38:39.804Z,13.86
2023-05-12T02:39:39.814Z,13.84
2023-05-12T02:40:39.843Z,13.81
2023-05-12T02:41:39.858Z,13.79
2023-05-12T02:42:39.780Z,13.79
2023-05-12T02:43:39.787Z,13.75
2023-05-12T02:44:39.758Z,13.76
2023-05-12T02:45:39.741Z,13.79
2023-05-12T02:46:39.753Z,13.76
2023-05-12T02:47:39.747Z,13.79
2023-05-12T02:48:39.667Z,13.80
2023-05-12T02:49:39.704Z,13.80
2023-05-12T02:50:39.678Z,13.79
2023-05-12T02:51:39.674Z,13.80
2023-05-12T02:52:39.604Z,13.80
2023-05-12T02:53:39.653Z,13.81
2023-05-12T02:54:39.605Z,13.81
2023-05-12T02:55:39.596Z,13.83
2023-05-12T02:56:39.566Z,13.84
2023-05-12T02:57:39.610Z,13.86
2023-05-12T02:58:39.561Z,13.87
2023-05-12T02:59:39.578Z,13.88
2023-05-12T03:00:39.545Z,13.88
2023-05-12T03:01:39.591Z,13.90
2023-05-12T03:02:39.776Z,13.88
2023-05-12T03:03:39.672Z,13.90
2023-05-12T03:04:39.509Z,13.87
2023-05-12T03:05:39.476Z,13.90
2023-05-12T03:06:39.453Z,13.90
2023-05-12T03:07:39.480Z,13.87
2023-05-12T03:08:39.412Z,13.90
2023-05-12T03:09:39.464Z,13.91
2023-05-12T03:10:39.391Z,13.91
2023-05-12T03:11:39.393Z,13.90
2023-05-12T03:12:39.461Z,13.88
2023-05-12T03:13:39.382Z,13.88
2023-05-12T03:14:39.326Z,13.88
2023-05-12T03:15:39.356Z,13.87
2023-05-12T03:16:39.340Z,13.87
2023-05-12T03:17:39.381Z,13.86
2023-05-12T03:18:39.319Z,13.84
2023-05-12T03:19:39.299Z,13.83
2023-05-12T03:20:39.285Z,13.81
2023-05-12T03:21:39.282Z,13.79
2023-05-12T03:22:39.251Z,13.79
2023-05-12T03:23:39.271Z,13.76
2023-05-12T03:24:39.269Z,13.75
2023-05-12T03:25:39.194Z,13.76
2023-05-12T03:26:39.187Z,13.75
2023-05-12T03:27:39.209Z,13.73
2023-05-12T03:28:39.202Z,13.75
2023-05-12T03:29:39.158Z,13.75
2023-05-12T03:30:39.117Z,13.76
2023-05-12T03:31:39.187Z,13.73
2023-05-12T03:32:39.305Z,13.76
2023-05-12T03:33:39.087Z,13.75
2023-05-12T03:34:39.077Z,13.75
2023-05-12T03:35:39.077Z,13.72
2023-05-12T03:36:39.056Z,13.71
2023-05-12T03:37:39.096Z,13.71
2023-05-12T03:38:39.047Z,13.69
2023-05-12T03:39:39.021Z,13.71
2023-05-12T03:40:39.004Z,13.71
2023-05-12T03:41:38.980Z,13.73
2023-05-12T03:42:38.963Z,13.73
2023-05-12T03:43:38.987Z,13.75
2023-05-12T03:44:38.939Z,13.75
2023-05-12T03:45:38.976Z,13.75
2023-05-12T03:46:38.981Z,13.72
2023-05-12T03:47:39.012Z,13.71
2023-05-12T03:48:38.887Z,13.71
2023-05-12T03:49:38.876Z,13.72
2023-05-12T03:50:38.852Z,13.73
2023-05-12T03:51:38.889Z,13.76
2023-05-12T03:52:38.896Z,13.75
2023-05-12T03:53:38.836Z,13.76
2023-05-12T03:54:38.814Z,13.75
2023-05-12T03:55:38.815Z,13.75
2023-05-12T03:56:38.800Z,13.76
2023-05-12T03:57:38.828Z,13.76
2023-05-12T03:58:38.757Z,13.76
2023-05-12T03:59:38.774Z,13.76
2023-05-12T04:00:39.050Z,13.76
2023-05-12T04:01:38.814Z,13.76
2023-05-12T04:02:38.897Z,13.73
2023-05-12T04:03:38.817Z,13.72
2023-05-12T04:04:38.785Z,13.71
2023-05-12T04:05:38.688Z,13.69
2023-05-12T04:06:38.690Z,13.68
2023-05-12T04:07:38.631Z,13.66
2023-05-12T04:08:41.088Z,13.65
2023-05-12T04:09:38.655Z,13.66
2023-05-12T04:10:38.618Z,13.68
2023-05-12T04:11:38.618Z,13.66
2023-05-12T04:12:38.617Z,13.68
2023-05-12T04:13:38.561Z,13.68
2023-05-12T04:14:42.818Z,13.66
2023-05-12T04:15:38.567Z,13.66
2023-05-12T04:16:38.553Z,13.65
2023-05-12T04:17:38.561Z,13.68
2023-05-12T04:18:38.515Z,13.69
2023-05-12T04:19:38.484Z,13.71
2023-05-12T04:20:38.474Z,13.71
2023-05-12T04:21:38.457Z,13.71
2023-05-12T04:22:38.464Z,13.71
2023-05-12T04:23:38.489Z,13.68
2023-05-12T04:24:38.449Z,13.68
2023-05-12T04:25:38.406Z,13.68
2023-05-12T04:26:38.392Z,13.68
2023-05-12T04:27:38.376Z,13.68
2023-05-12T04:28:38.405Z,13.63
2023-05-12T04:29:38.340Z,13.62
2023-05-12T04:30:38.409Z,13.65
2023-05-12T04:31:38.418Z,13.62
2023-05-12T04:32:38.368Z,13.62
2023-05-12T04:33:38.288Z,13.62
2023-05-12T04:34:38.380Z,13.61
2023-05-12T04:35:38.263Z,13.62
2023-05-12T04:36:38.285Z,13.61
2023-05-12T04:37:38.257Z,13.61
2023-05-12T04:38:38.251Z,13.55
2023-05-12T04:39:38.217Z,13.57
2023-05-12T04:40:38.254Z,13.59
2023-05-12T04:41:38.210Z,13.62
2023-05-12T04:42:38.177Z,13.62
2023-05-12T04:44:38.158Z,13.59
2023-05-12T04:45:38.186Z,13.59
2023-05-12T04:46:38.310Z,13.57
2023-05-12T04:47:38.167Z,13.59
2023-05-12T04:48:38.100Z,13.62
2023-05-12T04:49:38.113Z,13.61
2023-05-12T04:50:38.137Z,13.62
2023-05-12T04:51:38.107Z,13.62
2023-05-12T04:52:38.075Z,13.63
2023-05-12T04:53:38.041Z,13.65
2023-05-12T04:54:38.034Z,13.63
2023-05-12T04:55:38.008Z,13.63
2023-05-12T04:56:38.023Z,13.63
2023-05-12T04:57:37.994Z,13.62
2023-05-12T04:58:38.011Z,13.61
2023-05-12T04:59:39.911Z,13.59
2023-05-12T05:00:37.946Z,13.59
2023-05-12T05:01:37.991Z,13.55
2023-05-12T05:02:38.030Z,13.53
2023-05-12T05:03:38.051Z,13.50
2023-05-12T05:04:37.900Z,13.50
2023-05-12T05:05:37.880Z,13.48
2023-05-12T05:06:37.866Z,13.51
2023-05-12T05:07:37.886Z,13.51
2023-05-12T05:08:37.885Z,13.53
2023-05-12T05:09:37.839Z,13.51
2023-05-12T05:10:37.839Z,13.51
2023-05-12T05:11:37.814Z,13.51
2023-05-12T05:12:37.802Z,13.50
2023-05-12T05:13:37.774Z,13.51
2023-05-12T05:14:37.813Z,13.53
2023-05-12T05:15:37.744Z,13.55
2023-05-12T05:16:37.782Z,13.55
2023-05-12T05:17:37.734Z,13.53
2023-05-12T05:18:37.808Z,13.48
2023-05-12T05:19:48.255Z,13.50
2023-05-12T05:20:40.781Z,13.51
2023-05-12T05:21:37.700Z,13.51
2023-05-12T05:22:37.689Z,13.54
2023-05-12T05:23:37.681Z,13.57
2023-05-12T05:24:37.682Z,13.59
2023-05-12T05:25:37.620Z,13.57
2023-05-12T05:26:37.648Z,13.57
2023-05-12T05:27:37.612Z,13.61
2023-05-12T05:28:37.630Z,13.63
2023-05-12T05:29:37.617Z,13.63
2023-05-12T05:30:37.610Z,13.65
2023-05-12T05:31:37.583Z,13.65
2023-05-12T05:32:37.778Z,13.68
2023-05-12T05:33:37.525Z,13.69
2023-05-12T05:34:37.634Z,13.66
2023-05-12T05:35:37.534Z,13.68
2023-05-12T05:36:37.519Z,13.72
2023-05-12T05:37:37.460Z,13.73
2023-05-12T05:38:37.518Z,13.72
2023-05-12T05:39:37.464Z,13.73
2023-05-12T05:40:49.303Z,13.76
2023-05-12T05:41:38.461Z,13.76
2023-05-12T05:42:37.408Z,13.76
2023-05-12T05:43:37.407Z,13.79
2023-05-12T05:44:37.371Z,13.81
2023-05-12T05:45:37.351Z,13.81
2023-05-12T05:46:37.408Z,13.84
2023-05-12T05:47:37.401Z,13.83
2023-05-12T05:48:37.416Z,13.79
2023-05-12T05:49:37.287Z,13.72
2023-05-12T05:50:37.300Z,13.73
2023-05-12T05:51:37.312Z,13.76
2023-05-12T05:52:37.266Z,13.79
2023-05-12T05:53:37.301Z,13.80
2023-05-12T05:54:37.283Z,13.80
2023-05-12T05:55:37.243Z,13.81
2023-05-12T05:56:37.258Z,13.83
2023-05-12T05:57:37.201Z,13.79
2023-05-12T05:58:37.252Z,13.83
2023-05-12T05:59:37.196Z,13.84
2023-05-12T06:00:37.178Z,13.87
2023-05-12T06:01:37.172Z,13.87
2023-05-12T06:02:37.215Z,13.90
2023-05-12T06:03:37.247Z,13.90
2023-05-12T06:04:37.175Z,13.91
2023-05-12T06:05:37.113Z,13.96
2023-05-12T06:06:37.089Z,14.01
2023-05-12T06:07:37.069Z,14.04
2023-05-12T06:08:37.106Z,13.96
2023-05-12T06:09:37.040Z,13.98
2023-05-12T06:10:37.042Z,13.94
2023-05-12T06:11:37.016Z,13.93
2023-05-12T06:12:37.002Z,13.96
2023-05-12T06:13:37.153Z,13.96
2023-05-12T06:14:37.009Z,13.98
2023-05-12T06:15:36.949Z,13.99
2023-05-12T06:16:37.035Z,14.01
2023-05-12T06:17:36.986Z,14.01
2023-05-12T06:18:37.037Z,14.01
2023-05-12T06:19:36.924Z,14.04
2023-05-12T06:20:36.910Z,14.02
2023-05-12T06:21:36.901Z,14.02
2023-05-12T06:22:36.933Z,13.99
2023-05-12T06:23:36.889Z,13.94
2023-05-12T06:24:36.865Z,13.91
2023-05-12T06:25:36.898Z,13.90
2023-05-12T06:26:36.877Z,13.91
2023-05-12T06:27:36.966Z,13.96
2023-05-12T06:28:36.817Z,14.01
2023-05-12T06:29:37.739Z,14.02
2023-05-12T06:30:36.827Z,14.05
2023-05-12T06:31:36.770Z,14.09
2023-05-12T06:32:36.828Z,14.12
2023-05-12T06:33:36.752Z,14.16
2023-05-12T06:34:36.753Z,14.21
2023-05-12T06:35:36.723Z,14.23
2023-05-12T06:36:36.729Z,14.27
2023-05-12T06:37:36.672Z,14.31
2023-05-12T06:38:36.664Z,14.29
2023-05-12T06:39:36.667Z,14.34
2023-05-12T06:40:36.671Z,14.39
2023-05-12T06:41:36.643Z,14.45
2023-05-12T06:42:36.662Z,14.48
2023-05-12T06:43:36.611Z,14.53
2023-05-12T06:44:36.616Z,14.54
2023-05-12T06:45:36.627Z,14.56
2023-05-12T06:46:36.616Z,14.60
2023-05-12T06:47:36.577Z,14.63
2023-05-12T06:48:36.582Z,14.67
2023-05-12T06:49:36.562Z,14.64
2023-05-12T06:50:36.542Z,14.54
2023-05-12T06:51:36.492Z,14.54
2023-05-12T06:52:36.496Z,14.53
2023-05-12T06:53:36.507Z,14.54
2023-05-12T06:54:36.478Z,14.54
2023-05-12T06:55:36.450Z,14.57
2023-05-12T06:56:36.438Z,14.59
2023-05-12T06:57:36.471Z,14.59
2023-05-12T06:58:36.438Z,14.60
2023-05-12T06:59:36.392Z,14.59
2023-05-12T07:00:36.421Z,14.64
2023-05-12T07:01:36.409Z,14.67
2023-05-12T07:02:36.421Z,14.71
2023-05-12T07:03:36.393Z,14.67
2023-05-12T07:04:36.329Z,14.64
2023-05-12T07:05:36.374Z,14.67
2023-05-12T07:06:36.362Z,14.72
2023-05-12T07:07:36.303Z,14.69
2023-05-12T07:08:36.310Z,14.67
2023-05-12T07:09:36.249Z,14.69
2023-05-12T07:10:36.254Z,14.64
2023-05-12T07:11:36.251Z,14.64
2023-05-12T07:12:36.251Z,14.64
2023-05-12T07:13:36.246Z,14.67
2023-05-12T07:14:36.202Z,14.69
2023-05-12T07:15:36.177Z,14.71
2023-05-12T07:16:36.254Z,14.74
2023-05-12T07:17:36.248Z,14.74
2023-05-12T07:18:36.245Z,14.79
2023-05-12T07:19:36.140Z,14.80
2023-05-12T07:20:36.140Z,14.85
2023-05-12T07:21:36.092Z,14.86
2023-05-12T07:22:38.473Z,14.87
2023-05-12T07:23:36.122Z,14.87
2023-05-12T07:24:36.092Z,14.87
2023-05-12T07:25:36.171Z,14.87
2023-05-12T07:26:36.064Z,14.86
2023-05-12T07:27:36.020Z,14.85
2023-05-12T07:28:36.050Z,14.87
2023-05-12T07:29:36.009Z,14.94
2023-05-12T07:30:35.990Z,14.97
2023-05-12T07:31:36.003Z,15.00
2023-05-12T07:32:35.974Z,14.98
2023-05-12T07:33:35.957Z,14.98
2023-05-12T07:34:35.990Z,14.98
2023-05-12T07:35:35.916Z,15.03
2023-05-12T07:36:35.930Z,15.03
2023-05-12T07:37:35.883Z,15.00
2023-05-12T07:38:35.908Z,15.03
2023-05-12T07:39:35.884Z,15.04
2023-05-12T07:40:35.905Z,15.01
2023-05-12T07:41:35.835Z,15.05
2023-05-12T07:42:35.826Z,15.11
2023-05-12T07:43:35.837Z,15.16
2023-05-12T07:44:35.808Z,15.16
2023-05-12T07:45:35.820Z,15.22
2023-05-12T07:46:35.816Z,15.25
2023-05-12T07:47:35.781Z,15.27
2023-05-12T07:48:35.782Z,15.30
2023-05-12T07:49:35.761Z,15.28
2023-05-12T07:50:35.752Z,15.28
2023-05-12T07:51:35.710Z,15.30
2023-05-12T07:52:35.748Z,15.33
2023-05-12T07:53:35.722Z,15.33
2023-05-12T07:54:35.668Z,15.33
2023-05-12T07:55:35.652Z,15.31
2023-05-12T07:56:35.688Z,15.33
2023-05-12T07:57:35.620Z,15.35
2023-05-12T07:58:35.649Z,15.38
2023-05-12T07:59:35.644Z,15.43
2023-05-12T08:00:35.633Z,15.46
2023-05-12T08:01:35.574Z,15.46
2023-05-12T08:02:35.634Z,15.44
2023-05-12T08:03:35.676Z,15.49
2023-05-12T08:04:35.647Z,15.48
2023-05-12T08:05:35.533Z,15.51
2023-05-12T08:06:35.532Z,15.46
2023-05-12T08:07:35.520Z,15.44
2023-05-12T08:08:35.528Z,15.43
2023-05-12T08:09:35.466Z,15.43
2023-05-12T08:10:35.491Z,15.46
2023-05-12T08:11:35.441Z,15.49
2023-05-12T08:12:35.446Z,15.52
2023-05-12T08:13:35.448Z,15.49
2023-05-12T08:14:35.438Z,15.51
2023-05-12T08:15:35.413Z,15.49
2023-05-12T08:16:35.426Z,15.46
2023-05-12T08:17:35.444Z,15.49
2023-05-12T08:18:35.404Z,15.53
2023-05-12T08:19:35.394Z,15.55
2023-05-12T08:20:35.356Z,15.52
2023-05-12T08:21:35.331Z,15.49
2023-05-12T08:22:35.319Z,15.53
2023-05-12T08:23:35.292Z,15.56
2023-05-12T08:24:35.303Z,15.62
2023-05-12T08:25:35.306Z,15.58
2023-05-12T08:26:36.017Z,15.60
2023-05-12T08:27:35.300Z,15.59
2023-05-12T08:28:35.209Z,15.60
2023-05-12T08:29:35.272Z,15.56
2023-05-12T08:30:35.209Z,15.53
2023-05-12T08:31:35.341Z,15.51
2023-05-12T08:32:35.181Z,15.55
2023-05-12T08:33:35.183Z,15.59
2023-05-12T08:34:35.207Z,15.62
2023-05-12T08:35:35.123Z,15.66
2023-05-12T08:36:35.134Z,15.64
2023-05-12T08:37:35.246Z,15.62
2023-05-12T08:38:35.194Z,15.62
2023-05-12T08:39:35.134Z,15.66
2023-05-12T08:40:35.157Z,15.62
2023-05-12T08:41:35.176Z,15.66
2023-05-12T08:42:35.042Z,15.70
2023-05-12T08:43:35.048Z,15.73
2023-05-12T08:44:35.025Z,15.76
2023-05-12T08:45:35.025Z,15.77
2023-05-12T08:46:35.130Z,15.78
2023-05-12T08:47:35.058Z,15.78
2023-05-12T08:48:34.991Z,15.80
2023-05-12T08:49:34.969Z,15.78
2023-05-12T08:50:34.958Z,15.77
2023-05-12T08:51:34.951Z,15.78
2023-05-12T08:52:34.940Z,15.80
2023-05-12T08:53:34.920Z,15.81
2023-05-12T08:54:39.935Z,15.84
2023-05-12T08:55:39.681Z,15.86
2023-05-12T08:57:35.046Z,15.80
2023-05-12T08:58:40.887Z,15.84
2023-05-12T08:59:35.964Z,15.89
2023-05-12T09:00:34.801Z,15.91
2023-05-12T09:01:36.758Z,15.95
2023-05-12T09:02:48.284Z,15.96
2023-05-12T09:03:35.869Z,15.99
2023-05-12T09:04:34.840Z,16.01
2023-05-12T09:05:34.892Z,16.03
2023-05-12T09:06:34.758Z,16.07
2023-05-12T09:07:34.759Z,16.06
2023-05-12T09:08:34.761Z,16.08
2023-05-12T09:09:34.679Z,16.13
2023-05-12T09:10:35.732Z,16.11
2023-05-12T09:11:34.700Z,16.16
2023-05-12T09:12:34.656Z,16.22
2023-05-12T09:13:34.629Z,16.27
2023-05-12T09:14:34.626Z,16.30
2023-05-12T09:15:34.598Z,16.36
2023-05-12T09:16:34.680Z,16.33
2023-05-12T09:17:34.646Z,16.37
2023-05-12T09:18:34.821Z,16.37
2023-05-12T09:19:34.570Z,16.44
2023-05-12T09:20:34.545Z,16.47
2023-05-12T09:21:34.572Z,16.50
2023-05-12T09:22:34.528Z,16.50
2023-05-12T09:23:34.530Z,16.48
2023-05-12T09:24:34.536Z,16.48
2023-05-12T09:25:34.466Z,16.47
2023-05-12T09:26:34.466Z,16.47
2023-05-12T09:27:34.447Z,16.47
2023-05-12T09:28:34.420Z,16.44
2023-05-12T09:29:37.533Z,16.42
2023-05-12T09:30:35.431Z,16.41
2023-05-12T09:31:34.505Z,16.45
2023-05-12T09:32:34.496Z,16.47
2023-05-12T09:33:34.394Z,16.52
2023-05-12T09:34:34.399Z,16.57
2023-05-12T09:35:34.367Z,16.65
2023-05-12T09:36:34.329Z,16.67
2023-05-12T09:37:34.346Z,16.66
2023-05-12T09:38:34.289Z,16.67
2023-05-12T09:39:34.331Z,16.73
2023-05-12T09:40:34.422Z,16.73
2023-05-12T09:41:34.266Z,16.75
2023-05-12T09:42:34.254Z,16.72
2023-05-12T09:43:34.243Z,16.77
2023-05-12T09:44:34.266Z,16.82
2023-05-12T09:45:34.292Z,16.88
2023-05-12T09:46:34.263Z,16.88
2023-05-12T09:47:34.417Z,16.92
2023-05-12T09:48:34.202Z,16.95
2023-05-12T09:49:34.174Z,16.98
2023-05-12T09:50:44.262Z,17.00
2023-05-12T09:51:35.115Z,17.03
2023-05-12T09:52:34.112Z,17.03
2023-05-12T09:53:34.102Z,17.05
2023-05-12T09:54:34.166Z,17.06
2023-05-12T09:55:34.089Z,17.05
2023-05-12T09:56:34.079Z,17.00
2023-05-12T09:57:34.080Z,16.99
2023-05-12T09:58:34.076Z,16.96
2023-05-12T09:59:34.077Z,16.91
2023-05-12T10:00:46.603Z,16.90
2023-05-12T10:01:35.297Z,16.88
2023-05-12T10:02:34.171Z,16.91
2023-05-12T10:03:33.992Z,16.91
2023-05-12T10:04:34.067Z,16.90
2023-05-12T10:05:33.981Z,16.90
2023-05-12T10:06:34.044Z,16.88
2023-05-12T10:07:33.959Z,16.85
2023-05-12T10:08:33.913Z,16.84
2023-05-12T10:09:33.972Z,16.85
2023-05-12T10:10:33.889Z,16.88
2023-05-12T10:11:33.869Z,16.91
2023-05-12T10:12:33.856Z,16.95
2023-05-12T10:13:33.868Z,16.99
2023-05-12T10:14:33.837Z,16.96
2023-05-12T10:15:33.823Z,16.98
2023-05-12T10:16:33.826Z,16.99
2023-05-12T10:17:33.839Z,17.05
2023-05-12T10:18:33.794Z,17.07
2023-05-12T10:19:33.798Z,17.15
2023-05-12T10:20:33.743Z,17.17
2023-05-12T10:21:33.741Z,17.18
2023-05-12T10:22:33.752Z,17.21
2023-05-12T10:23:35.887Z,17.24
2023-05-12T10:24:33.715Z,17.27
2023-05-12T10:25:33.699Z,17.33
2023-05-12T10:26:33.661Z,17.39
2023-05-12T10:27:33.659Z,17.43
2023-05-12T10:28:33.626Z,17.45
2023-05-12T10:29:33.660Z,17.47
2023-05-12T10:30:33.670Z,17.53
2023-05-12T10:31:33.660Z,17.57
2023-05-12T10:32:33.654Z,17.63
2023-05-12T10:33:33.633Z,17.68
2023-05-12T10:34:33.579Z,17.73
2023-05-12T10:35:33.571Z,17.77
2023-05-12T10:36:33.581Z,17.83
2023-05-12T10:37:33.575Z,17.89
2023-05-12T10:38:33.511Z,17.94
2023-05-12T10:39:33.486Z,18.01
2023-05-12T10:40:33.525Z,18.07
2023-05-12T10:41:33.501Z,18.07
2023-05-12T10:42:33.481Z,18.11
2023-05-12T10:43:33.475Z,18.17
2023-05-12T10:44:33.423Z,18.20
2023-05-12T10:45:33.439Z,18.21
2023-05-12T10:46:33.425Z,18.23
2023-05-12T10:47:33.462Z,18.23
2023-05-12T10:48:33.387Z,18.26
2023-05-12T10:49:33.363Z,18.31
2023-05-12T10:50:33.343Z,18.31
2023-05-12T10:51:33.387Z,18.36
2023-05-12T10:52:33.326Z,18.35
2023-05-12T10:53:47.811Z,18.35
2023-05-12T10:54:34.292Z,18.36
2023-05-12T10:55:33.356Z,18.35
2023-05-12T10:56:33.577Z,18.34
2023-05-12T10:57:33.997Z,18.38
2023-05-12T10:58:33.529Z,18.38
2023-05-12T10:59:33.812Z,18.38
2023-05-12T11:00:33.834Z,18.41
2023-05-12T11:01:33.549Z,18.42
2023-05-12T11:02:34.451Z,18.47
2023-05-12T11:03:33.569Z,18.51
2023-05-12T11:04:33.843Z,18.59
2023-05-12T11:05:33.599Z,18.66
2023-05-12T11:06:34.226Z,18.72
2023-05-12T11:07:33.454Z,18.78
2023-05-12T11:08:34.002Z,18.82
2023-05-12T11:09:33.215Z,18.84
2023-05-12T11:10:33.649Z,18.84
2023-05-12T11:11:34.153Z,18.75
2023-05-12T11:12:33.388Z,18.76
2023-05-12T11:13:33.080Z,18.75
2023-05-12T11:14:33.050Z,18.82
2023-05-12T11:15:33.059Z,18.84
2023-05-12T11:16:33.057Z,18.87
2023-05-12T11:17:33.145Z,18.91
2023-05-12T11:18:33.001Z,18.93
2023-05-12T11:19:33.019Z,18.93
2023-05-12T11:20:32.951Z,18.91
2023-05-12T11:21:32.970Z,18.91
2023-05-12T11:22:32.952Z,18.94
2023-05-12T11:23:32.978Z,18.96
2023-05-12T11:24:32.948Z,18.96
2023-05-12T11:25:32.957Z,18.93
2023-05-12T11:26:32.885Z,18.94
2023-05-12T11:27:32.892Z,18.94
2023-05-12T11:28:32.876Z,18.94
2023-05-12T11:29:32.862Z,18.93
2023-05-12T11:30:33.139Z,18.91
2023-05-12T11:31:32.884Z,18.90
2023-05-12T11:32:32.861Z,18.91
2023-05-12T11:33:32.801Z,18.97
2023-05-12T11:34:32.774Z,18.99
2023-05-12T11:35:32.800Z,19.05
2023-05-12T11:36:32.740Z,19.12
2023-05-12T11:37:32.738Z,19.15
2023-05-12T11:38:32.736Z,19.12
2023-05-12T11:39:32.749Z,19.15
2023-05-12T11:40:32.728Z,19.13
2023-05-12T11:41:32.726Z,19.13
2023-05-12T11:42:32.672Z,19.16
2023-05-12T11:43:32.674Z,19.21
2023-05-12T11:44:32.658Z,19.25
2023-05-12T11:45:32.708Z,19.34
2023-05-12T11:46:32.610Z,19.38
2023-05-12T11:47:32.794Z,19.40
2023-05-12T11:48:32.604Z,19.43
2023-05-12T11:49:32.610Z,19.50
2023-05-12T11:50:32.557Z,19.58
2023-05-12T11:51:32.586Z,19.67
2023-05-12T11:52:32.554Z,19.76
2023-05-12T11:53:32.570Z,19.82
2023-05-12T11:54:32.519Z,19.85
2023-05-12T11:55:32.522Z,19.94
2023-05-12T11:56:32.496Z,19.97
2023-05-12T11:57:32.530Z,20.04
2023-05-12T11:58:33.510Z,20.15
2023-05-12T11:59:32.489Z,20.22
2023-05-12T12:00:32.454Z,20.33
2023-05-12T12:01:32.462Z,20.38
2023-05-12T12:02:32.513Z,20.46
2023-05-12T12:03:32.540Z,20.41
2023-05-12T12:04:32.493Z,20.46
2023-05-12T12:05:32.380Z,20.53
2023-05-12T12:06:32.385Z,20.60
2023-05-12T12:07:32.360Z,20.66
2023-05-12T12:08:32.391Z,20.60
2023-05-12T12:09:32.375Z,20.60
2023-05-12T12:10:32.297Z,20.50
2023-05-12T12:11:32.348Z,20.42
2023-05-12T12:12:32.278Z,20.35
2023-05-12T12:13:32.348Z,20.30
2023-05-12T12:14:32.272Z,20.17
2023-05-12T12:15:32.262Z,20.10
2023-05-12T12:16:32.327Z,19.98
2023-05-12T12:17:32.261Z,19.89
2023-05-12T12:18:32.224Z,19.79
2023-05-12T12:19:32.254Z,19.70
2023-05-12T12:20:32.222Z,19.62
2023-05-12T12:21:32.192Z,19.53
2023-05-12T12:22:32.138Z,19.43
2023-05-12T12:23:43.882Z,19.35
2023-05-12T12:24:33.192Z,19.28
2023-05-12T12:25:32.154Z,19.21
2023-05-12T12:26:32.153Z,19.15
2023-05-12T12:27:32.119Z,19.12
2023-05-12T12:28:32.147Z,19.07
2023-05-12T12:29:32.076Z,19.07
2023-05-12T12:30:32.081Z,19.01
2023-05-12T12:31:32.287Z,18.96
2023-05-12T12:32:32.082Z,18.91
2023-05-12T12:33:31.988Z,18.87
2023-05-12T12:34:32.028Z,18.84
2023-05-12T12:35:32.000Z,18.84
2023-05-12T12:36:32.044Z,18.82
2023-05-12T12:37:31.977Z,18.79
2023-05-12T12:38:31.963Z,18.79
2023-05-12T12:39:31.955Z,18.79
2023-05-12T12:40:31.961Z,18.78
2023-05-12T12:41:31.914Z,18.78
2023-05-12T12:42:31.928Z,18.75
2023-05-12T12:43:31.919Z,18.72
2023-05-12T12:44:31.861Z,18.74
2023-05-12T12:45:31.872Z,18.71
2023-05-12T12:46:31.887Z,18.68
2023-05-12T12:47:31.891Z,18.68
2023-05-12T12:48:31.858Z,18.66
2023-05-12T12:49:31.811Z,18.66
2023-05-12T12:50:31.786Z,18.66
2023-05-12T12:51:44.456Z,18.69
2023-05-12T12:52:32.790Z,18.71
2023-05-12T12:53:31.750Z,18.75
2023-05-12T12:54:31.728Z,18.76